createdAt,value
2018-08-19T00:00:53.727Z,97648.37
2018-08-19T00:03:22.937Z,97652.14
2018-08-19T00:05:53.038Z,97652.20
2018-08-19T00:08:22.816Z,97653.94
2018-08-19T00:11:01.156Z,97657.02
2018-08-19T00:13:42.800Z,97655.45
2018-08-19T00:16:12.412Z,97649.38
2018-08-19T00:18:41.795Z,97651.66
2018-08-19T00:21:12.306Z,97656.34
2018-08-19T00:23:46.396Z,97654.50
2018-08-19T00:26:15.772Z,97657.77
2018-08-19T00:28:44.794Z,97650.17
2018-08-19T00:31:14.610Z,97650.47
2018-08-19T00:33:44.498Z,97647.73
2018-08-19T00:36:25.536Z,97647.40
2018-08-19T00:38:55.282Z,97642.17
2018-08-19T00:41:24.499Z,97643.22
2018-08-19T00:43:54.558Z,97647.23
2018-08-19T00:46:39.137Z,97643.24
2018-08-19T00:49:08.337Z,97646.51
2018-08-19T00:51:39.710Z,97648.48
2018-08-19T00:54:09.862Z,97651.39
2018-08-19T00:56:38.909Z,97656.44
2018-08-19T00:59:10.778Z,97658.39
2018-08-19T01:01:39.803Z,97659.89
2018-08-19T01:04:10.148Z,97661.03
2018-08-19T01:06:44.257Z,97659.72
2018-08-19T01:09:24.946Z,97659.44
2018-08-19T01:11:55.630Z,97655.46
2018-08-19T01:14:25.199Z,97659.63
2018-08-19T01:34:14.534Z,97654.58
2018-08-19T01:36:53.645Z,97643.64
2018-08-19T01:39:22.623Z,97647.97
2018-08-19T01:41:52.168Z,97644.45
2018-08-19T01:44:21.213Z,97639.05
2018-08-19T01:46:52.069Z,97637.70
2018-08-19T01:49:21.054Z,97638.00
2018-08-19T01:51:51.552Z,97637.43
2018-08-19T01:54:22.634Z,97629.30
2018-08-19T01:57:02.660Z,97627.14
2018-08-19T01:59:34.030Z,97619.39
2018-08-19T02:02:05.630Z,97618.55
2018-08-19T02:04:41.298Z,97623.11
2018-08-19T02:07:10.742Z,97620.91
2018-08-19T02:09:53.495Z,97623.13
2018-08-19T02:12:22.730Z,97618.17
2018-08-19T02:14:52.420Z,97612.48
2018-08-19T02:17:21.616Z,97612.66
2018-08-19T02:19:52.173Z,97614.29
2018-08-19T02:22:21.202Z,97612.63
2018-08-19T02:24:53.487Z,97610.75
2018-08-19T02:27:22.737Z,97616.13
2018-08-19T02:29:52.643Z,97611.95
2018-08-19T02:32:22.104Z,97606.64
2018-08-19T02:34:52.515Z,97607.61
2018-08-19T02:37:21.786Z,97605.84
2018-08-19T02:39:53.833Z,97589.19
2018-08-19T02:42:38.214Z,97588.06
2018-08-19T02:45:08.556Z,97593.97
2018-08-19T02:47:38.640Z,97595.22
2018-08-19T02:50:07.819Z,97594.71
2018-08-19T02:52:38.729Z,97598.68
2018-08-19T02:55:08.874Z,97601.80
2018-08-19T02:57:41.532Z,97603.50
2018-08-19T03:00:13.931Z,97600.84
2018-08-19T03:02:43.828Z,97598.45
2018-08-19T03:05:17.685Z,97598.73
2018-08-19T03:08:06.449Z,97590.84
2018-08-19T03:10:36.151Z,97597.06
2018-08-19T03:13:11.761Z,97595.52
2018-08-19T03:15:41.730Z,97598.00
2018-08-19T03:18:12.757Z,97594.52
2018-08-19T03:20:43.429Z,97593.20
2018-08-19T03:23:13.137Z,97590.57
2018-08-19T03:25:43.962Z,97592.80
2018-08-19T03:28:13.356Z,97593.47
2018-08-19T03:30:57.536Z,97591.29
2018-08-19T03:33:26.794Z,97585.55
2018-08-19T03:35:56.189Z,97590.75
2018-08-19T03:38:28.024Z,97600.32
2018-08-19T03:40:58.214Z,97587.45
2018-08-19T03:43:27.245Z,97587.90
2018-08-19T03:45:58.622Z,97586.05
2018-08-19T03:48:27.678Z,97583.27
2018-08-19T03:50:56.803Z,97582.55
2018-08-19T03:53:25.956Z,97579.09
2018-08-19T03:55:54.982Z,97589.44
2018-08-19T03:58:23.963Z,97587.53
2018-08-19T04:00:53.461Z,97585.59
2018-08-19T04:03:25.632Z,97582.53
2018-08-19T04:05:58.954Z,97590.48
2018-08-19T04:08:33.672Z,97597.95
2018-08-19T04:11:05.469Z,97589.20
2018-08-19T04:13:40.746Z,97594.06
2018-08-19T04:16:11.129Z,97596.20
2018-08-19T04:18:42.156Z,97601.06
2018-08-19T04:21:12.807Z,97606.85
2018-08-19T04:23:46.203Z,97608.45
2018-08-19T04:26:15.319Z,97608.15
2018-08-19T04:28:45.263Z,97600.27
2018-08-19T04:31:19.507Z,97605.67
2018-08-19T04:33:49.559Z,97600.99
2018-08-19T04:36:21.334Z,97603.17
2018-08-19T04:38:51.191Z,97603.05
2018-08-19T04:41:20.373Z,97613.11
2018-08-19T04:43:50.154Z,97613.53
2018-08-19T04:46:19.208Z,97613.34
2018-08-19T04:48:48.802Z,97607.08
2018-08-19T04:51:17.758Z,97611.77
2018-08-19T04:53:46.707Z,97605.81
2018-08-19T04:56:16.488Z,97609.30
2018-08-19T04:58:45.451Z,97611.20
2018-08-19T05:01:14.551Z,97615.65
2018-08-19T05:03:45.514Z,97612.26
2018-08-19T05:06:14.528Z,97612.92
2018-08-19T05:08:43.434Z,97615.97
2018-08-19T05:11:12.580Z,97619.70
2018-08-19T05:13:41.579Z,97614.53
2018-08-19T05:16:10.655Z,97619.47
2018-08-19T05:18:39.869Z,97611.75
2018-08-19T05:21:14.809Z,97605.69
2018-08-19T05:23:43.870Z,97603.14
2018-08-19T05:26:14.404Z,97604.40
2018-08-19T05:28:48.070Z,97609.56
2018-08-19T05:31:17.131Z,97579.88
2018-08-19T05:33:46.353Z,97604.32
2018-08-19T05:36:16.378Z,97601.94
2018-08-19T05:38:46.968Z,97599.19
2018-08-19T05:41:17.434Z,97598.69
2018-08-19T05:43:47.905Z,97598.09
2018-08-19T05:46:17.098Z,97598.43
2018-08-19T05:48:46.672Z,97599.86
2018-08-19T05:51:17.348Z,97600.70
2018-08-19T05:53:53.664Z,97597.06
2018-08-19T05:56:22.767Z,97611.12
2018-08-19T05:58:53.665Z,97607.89
2018-08-19T06:01:27.898Z,97608.00
2018-08-19T06:03:57.163Z,97602.45
2018-08-19T06:06:26.231Z,97608.63
2018-08-19T06:08:55.299Z,97607.93
2018-08-19T06:11:25.570Z,97612.69
2018-08-19T06:13:56.135Z,97611.09
2018-08-19T06:16:26.177Z,97606.55
2018-08-19T06:18:55.720Z,97613.59
2018-08-19T06:21:24.771Z,97615.30
2018-08-19T06:23:55.368Z,97615.70
2018-08-19T06:26:29.325Z,97615.22
2018-08-19T06:28:58.312Z,97620.22
2018-08-19T06:31:28.421Z,97616.84
2018-08-19T06:33:58.143Z,97619.69
2018-08-19T06:36:28.042Z,97616.82
2018-08-19T06:38:57.591Z,97616.94
2018-08-19T06:41:28.497Z,97616.67
2018-08-19T06:43:58.132Z,97610.75
2018-08-19T06:46:28.226Z,97618.65
2018-08-19T06:48:58.045Z,97614.95
2018-08-19T06:51:27.272Z,97609.91
2018-08-19T06:53:56.541Z,97608.06
2018-08-19T06:56:25.742Z,97606.84
2018-08-19T06:58:55.039Z,97610.62
2018-08-19T07:01:24.447Z,97608.87
2018-08-19T07:03:56.783Z,97607.31
2018-08-19T07:06:25.805Z,97604.84
2018-08-19T07:08:54.777Z,97604.22
2018-08-19T07:11:23.965Z,97608.55
2018-08-19T07:13:55.287Z,97610.18
2018-08-19T07:16:24.497Z,97606.82
2018-08-19T07:18:55.179Z,97611.44
2018-08-19T07:21:26.210Z,97606.42
2018-08-19T07:23:55.536Z,97604.62
2018-08-19T07:26:24.508Z,97601.06
2018-08-19T07:28:53.825Z,97605.02
2018-08-19T07:31:22.860Z,97605.28
2018-08-19T07:33:52.277Z,97622.10
2018-08-19T07:36:21.287Z,97619.68
2018-08-19T07:38:51.073Z,97621.08
2018-08-19T07:41:20.036Z,97622.77
2018-08-19T07:43:49.471Z,97626.81
2018-08-19T07:46:18.933Z,97630.70
2018-08-19T07:48:48.633Z,97626.47
2018-08-19T07:51:17.748Z,97627.44
2018-08-19T07:53:46.752Z,97624.14
2018-08-19T07:56:15.911Z,97628.88
2018-08-19T07:58:47.429Z,97632.09
2018-08-19T08:01:17.009Z,97626.03
2018-08-19T08:03:46.274Z,97630.37
2018-08-19T08:06:15.400Z,97629.06
2018-08-19T08:08:44.531Z,97625.98
2018-08-19T08:11:13.596Z,97627.49
2018-08-19T08:13:44.802Z,97629.42
2018-08-19T08:16:14.183Z,97633.95
2018-08-19T08:18:43.106Z,97627.67
2018-08-19T08:21:14.685Z,97618.27
2018-08-19T08:23:47.559Z,97625.65
2018-08-19T08:26:16.766Z,97620.09
2018-08-19T08:28:53.202Z,97619.34
2018-08-19T08:31:22.351Z,97618.27
2018-08-19T08:33:52.138Z,97618.48
2018-08-19T08:36:21.150Z,97620.41
2018-08-19T08:38:51.295Z,97615.97
2018-08-19T08:41:20.271Z,97614.77
2018-08-19T08:43:49.237Z,97621.55
2018-08-19T08:46:18.220Z,97596.38
2018-08-19T08:48:47.983Z,97613.00
2018-08-19T08:55:02.663Z,97623.22
2018-08-19T08:57:31.745Z,97614.45
2018-08-19T09:00:00.725Z,97616.77
2018-08-19T09:02:29.768Z,97609.02
2018-08-19T09:22:13.662Z,97598.48
2018-08-19T09:24:42.876Z,97596.33
2018-08-19T09:27:11.951Z,97596.09
2018-08-19T09:29:41.518Z,97593.94
2018-08-19T09:32:10.583Z,97591.95
2018-08-19T09:34:39.586Z,97600.45
2018-08-19T09:37:08.813Z,97586.41
2018-08-19T09:39:37.841Z,97590.73
2018-08-19T09:42:12.398Z,97581.27
2018-08-19T09:44:43.479Z,97585.23
2018-08-19T09:47:12.667Z,97584.55
2018-08-19T09:49:41.788Z,97576.17
2018-08-19T09:52:10.837Z,97576.74
2018-08-19T09:54:39.797Z,97574.47
2018-08-19T09:57:09.807Z,97578.77
2018-08-19T09:59:38.796Z,97572.61
2018-08-19T10:02:09.276Z,97571.42
2018-08-19T10:04:38.256Z,97575.59
2018-08-19T10:07:13.469Z,97574.48
2018-08-19T10:09:42.968Z,97574.27
2018-08-19T10:12:13.191Z,97567.69
2018-08-19T10:14:42.229Z,97569.66
2018-08-19T10:17:11.403Z,97569.47
2018-08-19T10:19:40.418Z,97567.21
2018-08-19T10:22:09.618Z,97573.54
2018-08-19T10:24:38.620Z,97566.82
2018-08-19T10:27:08.885Z,97563.84
2018-08-19T10:29:37.891Z,97563.33
2018-08-19T10:32:06.878Z,97565.22
2018-08-19T10:34:36.905Z,97554.71
2018-08-19T10:37:06.487Z,97561.75
2018-08-19T10:39:35.577Z,97567.99
2018-08-19T10:42:17.514Z,97576.53
2018-08-19T10:44:48.097Z,97570.45
2018-08-19T10:47:17.199Z,97565.30
2018-08-19T10:50:00.047Z,97569.63
2018-08-19T10:52:30.737Z,97576.48
2018-08-19T10:55:01.213Z,97556.80
2018-08-19T10:57:30.332Z,97559.88
2018-08-19T10:59:59.997Z,97560.72
2018-08-19T11:02:29.029Z,97547.64
2018-08-19T11:04:59.869Z,97552.42
2018-08-19T11:07:29.075Z,97552.33
2018-08-19T11:10:14.124Z,97539.17
2018-08-19T11:12:43.103Z,97550.97
2018-08-19T11:15:28.941Z,97549.90
2018-08-19T11:17:58.909Z,97543.86
2018-08-19T11:20:33.192Z,97533.28
2018-08-19T11:23:07.196Z,97527.31
2018-08-19T11:25:36.187Z,97535.75
2018-08-19T11:28:15.000Z,97533.62
2018-08-19T11:30:43.999Z,97531.44
2018-08-19T11:33:14.844Z,97528.23
2018-08-19T11:35:46.611Z,97531.13
2018-08-19T11:38:15.544Z,97527.62
2018-08-19T11:40:44.478Z,97523.05
2018-08-19T11:43:13.421Z,97524.03
2018-08-19T11:45:42.433Z,97512.50
2018-08-19T11:48:11.545Z,97511.46
2018-08-19T11:50:40.707Z,97504.53
2018-08-19T11:53:09.670Z,97509.35
2018-08-19T11:55:38.658Z,97501.95
2018-08-19T11:58:07.754Z,97494.72
2018-08-19T12:00:42.793Z,97492.51
2018-08-19T12:03:11.808Z,97503.36
2018-08-19T12:05:40.777Z,97499.13
2018-08-19T12:08:09.715Z,97489.66
2018-08-19T12:10:38.672Z,97486.32
2018-08-19T12:13:07.576Z,97466.10
2018-08-19T12:15:36.553Z,97479.80
2018-08-19T12:18:05.564Z,97475.16
2018-08-19T12:20:36.396Z,97473.73
2018-08-19T12:23:05.388Z,97464.82
2018-08-19T12:25:34.710Z,97465.97
2018-08-19T12:28:03.727Z,97466.19
2018-08-19T12:30:33.031Z,97462.61
2018-08-19T12:33:12.698Z,97456.41
2018-08-19T12:35:41.688Z,97446.42
2018-08-19T12:38:10.713Z,97457.91
2018-08-19T12:40:44.098Z,97445.59
2018-08-19T12:43:13.070Z,97441.56
2018-08-19T12:45:42.022Z,97440.14
2018-08-19T12:48:11.133Z,97435.56
2018-08-19T12:50:40.278Z,97425.99
2018-08-19T12:53:09.407Z,97440.02
2018-08-19T12:55:38.450Z,97431.02
2018-08-19T12:58:08.498Z,97426.77
2018-08-19T13:00:37.458Z,97420.94
2018-08-19T13:03:06.569Z,97426.99
2018-08-19T13:05:41.567Z,97418.31
2018-08-19T13:08:12.825Z,97412.33
2018-08-19T13:10:52.919Z,97402.27
2018-08-19T13:13:22.208Z,97397.58
2018-08-19T13:15:51.321Z,97395.02
2018-08-19T13:18:29.243Z,97389.29
2018-08-19T13:21:14.904Z,97391.22
2018-08-19T13:23:43.883Z,97396.41
2018-08-19T13:26:12.955Z,97398.75
2018-08-19T13:28:44.549Z,97396.09
2018-08-19T13:42:44.611Z,97374.06
2018-08-19T13:45:14.130Z,97362.62
2018-08-19T13:47:44.891Z,97366.06
2018-08-19T13:50:14.068Z,97358.75
2018-08-19T13:52:49.054Z,97356.39
2018-08-19T13:55:22.612Z,97358.09
2018-08-19T13:57:51.825Z,97354.36
2018-08-19T14:00:23.695Z,97370.66
2018-08-19T14:02:56.140Z,97369.48
2018-08-19T14:05:25.111Z,97370.99
2018-08-19T14:07:54.246Z,97373.64
2018-08-19T14:10:29.185Z,97407.13
2018-08-19T14:12:58.114Z,97387.11
2018-08-19T14:15:27.636Z,97379.16
2018-08-19T14:17:56.557Z,97370.13
2018-08-19T14:20:28.847Z,97377.03
2018-08-19T14:22:58.242Z,97373.31
2018-08-19T14:25:28.777Z,97373.84
2018-08-19T14:30:45.655Z,97436.81
2018-08-19T14:33:15.274Z,97440.46
2018-08-19T14:35:44.778Z,97442.61
2018-08-19T14:38:14.788Z,97431.87
2018-08-19T14:40:44.726Z,97432.22
2018-08-19T14:43:14.985Z,97454.81
2018-08-19T14:45:44.955Z,97505.52
2018-08-19T14:48:14.429Z,97530.16
2018-08-19T14:50:44.373Z,97425.97
2018-08-19T14:53:13.394Z,97492.65
2018-08-19T14:55:43.195Z,97464.50
2018-08-19T14:58:12.817Z,97436.88
2018-08-19T15:00:42.355Z,97475.75
2018-08-19T15:03:13.427Z,97466.31
2018-08-19T15:05:42.999Z,97474.50
2018-08-19T15:08:20.345Z,97440.22
2018-08-19T15:10:54.059Z,97427.70
2018-08-19T15:13:23.358Z,97441.59
2018-08-19T15:15:54.021Z,97467.71
2018-08-19T15:18:24.676Z,97495.08
2018-08-19T15:20:54.798Z,97502.94
2018-08-19T15:23:26.437Z,97508.45
2018-08-19T15:26:02.130Z,97499.13
2018-08-19T15:28:31.379Z,97487.41
2018-08-19T15:31:00.656Z,97534.83
2018-08-19T15:33:31.701Z,97579.36
2018-08-19T15:36:03.767Z,97580.51
2018-08-19T15:38:33.797Z,97577.48
2018-08-19T15:41:04.070Z,97564.02
2018-08-19T15:43:33.379Z,97575.14
2018-08-19T15:46:02.927Z,97588.19
2018-08-19T15:48:33.275Z,97581.78
2018-08-19T15:51:17.404Z,97555.30
2018-08-19T15:53:47.796Z,97522.31
2018-08-19T15:56:17.641Z,97502.97
2018-08-19T15:58:46.810Z,97497.80
2018-08-19T16:01:26.900Z,97503.17
2018-08-19T16:04:28.015Z,97507.61
2018-08-19T16:07:02.387Z,97513.80
2018-08-19T16:09:32.158Z,97502.42
2018-08-19T16:12:01.277Z,97497.47
2018-08-19T16:14:32.332Z,97494.58
2018-08-19T16:17:03.557Z,97488.69
2018-08-19T16:19:33.255Z,97490.68
2018-08-19T16:22:02.301Z,97491.49
2018-08-19T16:24:32.912Z,97480.06
2018-08-19T16:27:02.750Z,97480.44
2018-08-19T16:29:33.219Z,97480.28
2018-08-19T16:32:02.206Z,97466.34
2018-08-19T16:34:31.708Z,97473.26
2018-08-19T16:37:01.181Z,97486.82
2018-08-19T16:39:32.157Z,97497.13
2018-08-19T16:42:01.831Z,97510.73
2018-08-19T16:44:30.837Z,97509.07
2018-08-19T16:46:59.970Z,97512.43
2018-08-19T16:49:29.773Z,97518.19
2018-08-19T16:51:58.630Z,97514.97
2018-08-19T16:54:29.223Z,97507.27
2018-08-19T16:56:59.169Z,97512.48
2018-08-19T16:59:28.391Z,97517.50
2018-08-19T17:01:57.649Z,97501.52
2018-08-19T17:04:26.857Z,97504.73
2018-08-19T17:06:55.870Z,97511.04
2018-08-19T17:09:25.081Z,97508.25
2018-08-19T17:11:57.283Z,97518.38
2018-08-19T17:14:26.250Z,97528.78
2018-08-19T17:16:56.108Z,97530.28
2018-08-19T17:19:26.307Z,97538.11
2018-08-19T17:21:55.825Z,97538.73
2018-08-19T17:24:25.358Z,97544.15
2018-08-19T17:27:00.180Z,97543.79
2018-08-19T17:29:31.814Z,97542.42
2018-08-19T17:32:01.207Z,97547.31
2018-08-19T17:34:31.015Z,97563.06
2018-08-19T17:37:00.241Z,97560.83
2018-08-19T17:39:32.131Z,97567.34
2018-08-19T17:42:01.388Z,97564.95
2018-08-19T17:44:30.392Z,97559.48
2018-08-19T17:47:03.710Z,97555.86
2018-08-19T17:49:33.298Z,97558.36
2018-08-19T17:52:02.815Z,97557.46
2018-08-19T17:54:39.846Z,97555.85
2018-08-19T17:57:14.659Z,97562.45
2018-08-19T17:59:44.321Z,97555.33
2018-08-19T18:02:13.351Z,97558.50
2018-08-19T18:04:46.677Z,97555.79
2018-08-19T18:07:25.238Z,97550.55
2018-08-19T18:10:53.258Z,97544.75
2018-08-19T18:13:22.185Z,97546.55
2018-08-19T18:15:51.929Z,97541.53
2018-08-19T18:18:22.749Z,97549.54
2018-08-19T18:20:51.947Z,97549.54
2018-08-19T18:23:26.789Z,97549.95
2018-08-19T18:25:55.806Z,97550.97
2018-08-19T18:28:28.969Z,97552.44
2018-08-19T18:31:04.485Z,97557.98
2018-08-19T18:33:33.443Z,97550.70
2018-08-19T18:36:02.364Z,97559.32
2018-08-19T18:38:34.910Z,97559.48
2018-08-19T18:41:03.846Z,97552.22
2018-08-19T18:43:32.801Z,97555.25
2018-08-19T18:46:02.647Z,97566.14
2018-08-19T18:48:31.581Z,97557.73
2018-08-19T18:51:00.954Z,97554.43
2018-08-19T18:53:30.314Z,97555.30
2018-08-19T18:55:59.292Z,97553.14
2018-08-19T18:58:28.286Z,97543.05
2018-08-19T19:01:00.848Z,97551.53
2018-08-19T19:03:29.761Z,97538.17
2018-08-19T19:05:58.757Z,97542.89
2018-08-19T19:08:27.999Z,97536.83
2018-08-19T19:11:02.092Z,97541.50
2018-08-19T19:13:31.273Z,97542.20
2018-08-19T19:16:00.507Z,97548.34
2018-08-19T19:18:29.452Z,97555.40
2018-08-19T19:21:03.203Z,97555.45
2018-08-19T19:23:40.141Z,97553.10
2018-08-19T19:26:09.737Z,97547.27
2018-08-19T19:28:38.733Z,97542.67
2018-08-19T19:31:12.697Z,97547.20
2018-08-19T19:33:41.729Z,97548.51
2018-08-19T19:36:15.707Z,97556.74
2018-08-19T19:38:49.857Z,97555.39
2018-08-19T19:41:26.901Z,97558.83
2018-08-19T19:43:55.833Z,97549.20
2018-08-19T19:46:25.233Z,97553.95
2018-08-19T19:48:55.485Z,97540.39
2018-08-19T19:51:24.703Z,97542.52
2018-08-19T19:53:58.714Z,97546.23
2018-08-19T19:56:27.850Z,97546.37
2018-08-19T19:58:56.948Z,97549.81
2018-08-19T20:01:25.950Z,97550.70
2018-08-19T20:03:56.078Z,97553.89
2018-08-19T20:06:25.457Z,97552.44
2018-08-19T20:08:55.286Z,97547.83
2018-08-19T20:11:30.458Z,97549.48
2018-08-19T20:14:02.178Z,97549.78
2018-08-19T20:16:31.241Z,97555.83
2018-08-19T20:19:00.195Z,97556.68
2018-08-19T20:21:30.470Z,97552.64
2018-08-19T20:24:00.069Z,97553.43
2018-08-19T20:26:31.121Z,97550.70
2018-08-19T20:29:01.497Z,97548.27
2018-08-19T20:31:30.387Z,97553.02
2018-08-19T20:33:59.355Z,97556.34
2018-08-19T20:36:28.377Z,97545.50
2018-08-19T20:38:57.322Z,97551.38
2018-08-19T20:41:26.257Z,97544.53
2018-08-19T20:43:55.201Z,97541.21
2018-08-19T20:46:24.346Z,97542.97
2018-08-19T20:48:54.055Z,97547.06
2018-08-19T20:51:22.931Z,97547.98
2018-08-19T20:53:52.294Z,97547.71
2018-08-19T20:56:21.209Z,97556.72
2018-08-19T20:58:50.158Z,97547.71
2018-08-19T21:01:24.045Z,97553.03
2018-08-19T21:03:53.680Z,97550.06
2018-08-19T21:06:22.550Z,97557.25
2018-08-19T21:08:51.921Z,97554.08
2018-08-19T21:11:20.833Z,97556.81
2018-08-19T21:13:50.875Z,97554.86
2018-08-19T21:16:19.797Z,97554.83
2018-08-19T21:18:48.758Z,97548.96
2018-08-19T21:21:17.663Z,97549.34
2018-08-19T21:23:46.786Z,97550.55
2018-08-19T21:26:15.973Z,97549.73
2018-08-19T21:28:49.045Z,97553.41
2018-08-19T21:31:18.148Z,97549.75
2018-08-19T21:33:47.178Z,97557.55
2018-08-19T21:36:16.130Z,97550.52
2018-08-19T21:38:45.562Z,97547.71
2018-08-19T21:41:14.550Z,97546.64
2018-08-19T21:43:44.330Z,97544.21
2018-08-19T21:46:13.640Z,97544.21
2018-08-19T21:48:43.482Z,97535.20
2018-08-19T21:51:12.398Z,97532.12
2018-08-19T21:53:41.429Z,97524.33
2018-08-19T21:56:10.312Z,97530.08
2018-08-19T21:58:39.253Z,97522.27
2018-08-19T22:01:13.143Z,97516.83
2018-08-19T22:03:47.287Z,97523.41
2018-08-19T22:06:16.191Z,97524.55
2018-08-19T22:08:45.125Z,97518.44
2018-08-19T22:11:14.041Z,97525.84
2018-08-19T22:13:44.349Z,97528.05
2018-08-19T22:16:13.406Z,97523.03
2018-08-19T22:18:42.577Z,97522.95
2018-08-19T22:21:17.168Z,97524.02
2018-08-19T22:23:47.302Z,97519.56
2018-08-19T22:26:17.469Z,97515.83
2018-08-19T22:28:49.572Z,97520.85
2018-08-19T22:31:27.111Z,97525.77
2018-08-19T22:33:57.432Z,97527.92
2018-08-19T22:36:26.473Z,97526.55
2018-08-19T22:38:56.709Z,97518.96
2018-08-19T22:41:27.885Z,97522.95
2018-08-19T22:43:57.277Z,97521.69
2018-08-19T22:46:26.855Z,97529.55
2018-08-19T22:48:56.364Z,97522.73
2018-08-19T22:51:26.260Z,97529.63
2018-08-19T22:53:56.079Z,97527.56
2018-08-19T22:56:24.975Z,97520.09
2018-08-19T22:58:54.351Z,97519.50
2018-08-19T23:01:23.626Z,97525.01
2018-08-19T23:03:59.561Z,97516.43
2018-08-19T23:06:29.412Z,97515.52
2018-08-19T23:08:58.449Z,97508.72
2018-08-19T23:11:36.625Z,97508.13
2018-08-19T23:14:16.743Z,97509.31
2018-08-19T23:16:45.842Z,97501.25
2018-08-19T23:19:14.814Z,97501.54
2018-08-19T23:21:43.721Z,97494.93
2018-08-19T23:24:12.680Z,97490.23
2018-08-19T23:26:41.537Z,97490.25
2018-08-19T23:32:02.825Z,97483.72
2018-08-19T23:40:14.384Z,97473.66
2018-08-19T23:42:43.264Z,97478.84
2018-08-19T23:45:12.260Z,97475.81
2018-08-19T23:47:41.190Z,97470.43
2018-08-19T23:50:10.209Z,97481.41
2018-08-19T23:52:40.117Z,97477.38
2018-08-19T23:55:09.575Z,97475.41
2018-08-19T23:57:39.225Z,97480.80
